sensor_id;sensor_type;location;lat;lon;timestamp;P1;durP1;ratioP1;P2;durP2;ratioP2
69053;SDS011;56125;52.242;4.756;2024-03-02T00:04:09;1.13;;;0.80;;
69053;SDS011;56125;52.242;4.756;2024-03-02T00:09:10;0.73;;;0.70;;
69053;SDS011;56125;52.242;4.756;2024-03-02T00:14:14;1.08;;;0.70;;
69053;SDS011;56125;52.242;4.756;2024-03-02T00:19:16;1.20;;;0.80;;
69053;SDS011;56125;52.242;4.756;2024-03-02T00:24:18;1.15;;;0.65;;
69053;SDS011;56125;52.242;4.756;2024-03-02T00:29:22;1.00;;;0.90;;
69053;SDS011;56125;52.242;4.756;2024-03-02T00:34:23;1.88;;;0.82;;
69053;SDS011;56125;52.242;4.756;2024-03-02T00:39:24;0.87;;;0.50;;
69053;SDS011;56125;52.242;4.756;2024-03-02T00:44:25;1.88;;;0.65;;
69053;SDS011;56125;52.242;4.756;2024-03-02T00:49:27;1.33;;;0.70;;
69053;SDS011;56125;52.242;4.756;2024-03-02T00:54:28;0.80;;;0.70;;
69053;SDS011;56125;52.242;4.756;2024-03-02T00:59:30;0.60;;;0.60;;
69053;SDS011;56125;52.242;4.756;2024-03-02T01:04:32;0.80;;;0.60;;
69053;SDS011;56125;52.242;4.756;2024-03-02T01:09:33;0.87;;;0.70;;
69053;SDS011;56125;52.242;4.756;2024-03-02T01:14:34;1.13;;;0.60;;
69053;SDS011;56125;52.242;4.756;2024-03-02T01:19:35;0.97;;;0.67;;
69053;SDS011;56125;52.242;4.756;2024-03-02T01:24:36;0.80;;;0.70;;
69053;SDS011;56125;52.242;4.756;2024-03-02T01:29:37;1.33;;;0.80;;
69053;SDS011;56125;52.242;4.756;2024-03-02T01:34:38;0.70;;;0.70;;
69053;SDS011;56125;52.242;4.756;2024-03-02T01:39:39;1.30;;;0.50;;
69053;SDS011;56125;52.242;4.756;2024-03-02T01:44:40;0.70;;;0.70;;
69053;SDS011;56125;52.242;4.756;2024-03-02T01:49:42;0.80;;;0.63;;
69053;SDS011;56125;52.242;4.756;2024-03-02T01:54:43;1.10;;;0.70;;
69053;SDS011;56125;52.242;4.756;2024-03-02T01:59:44;0.80;;;0.60;;
69053;SDS011;56125;52.242;4.756;2024-03-02T02:04:48;0.60;;;0.50;;
69053;SDS011;56125;52.242;4.756;2024-03-02T02:09:49;0.93;;;0.67;;
69053;SDS011;56125;52.242;4.756;2024-03-02T02:14:51;0.55;;;0.50;;
69053;SDS011;56125;52.242;4.756;2024-03-02T02:19:52;0.97;;;0.70;;
69053;SDS011;56125;52.242;4.756;2024-03-02T02:24:53;0.98;;;0.75;;
69053;SDS011;56125;52.242;4.756;2024-03-02T02:29:54;1.20;;;0.70;;
69053;SDS011;56125;52.242;4.756;2024-03-02T02:34:56;0.60;;;0.50;;
69053;SDS011;56125;52.242;4.756;2024-03-02T02:39:57;0.50;;;0.50;;
69053;SDS011;56125;52.242;4.756;2024-03-02T02:44:58;0.60;;;0.52;;
69053;SDS011;56125;52.242;4.756;2024-03-02T02:49:59;0.60;;;0.60;;
69053;SDS011;56125;52.242;4.756;2024-03-02T02:55:03;1.08;;;0.60;;
69053;SDS011;56125;52.242;4.756;2024-03-02T03:00:05;0.60;;;0.60;;
69053;SDS011;56125;52.242;4.756;2024-03-02T03:05:16;0.52;;;0.50;;
69053;SDS011;56125;52.242;4.756;2024-03-02T03:10:17;0.67;;;0.67;;
69053;SDS011;56125;52.242;4.756;2024-03-02T03:15:18;0.68;;;0.55;;
69053;SDS011;56125;52.242;4.756;2024-03-02T03:20:19;1.17;;;0.70;;
69053;SDS011;56125;52.242;4.756;2024-03-02T03:25:22;0.90;;;0.60;;
69053;SDS011;56125;52.242;4.756;2024-03-02T03:30:23;0.90;;;0.60;;
69053;SDS011;56125;52.242;4.756;2024-03-02T03:35:24;0.80;;;0.70;;
69053;SDS011;56125;52.242;4.756;2024-03-02T03:40:25;0.60;;;0.60;;
69053;SDS011;56125;52.242;4.756;2024-03-02T03:45:26;0.80;;;0.57;;
69053;SDS011;56125;52.242;4.756;2024-03-02T03:50:27;2.17;;;0.60;;
69053;SDS011;56125;52.242;4.756;2024-03-02T03:55:28;0.50;;;0.50;;
69053;SDS011;56125;52.242;4.756;2024-03-02T04:00:29;0.63;;;0.60;;
69053;SDS011;56125;52.242;4.756;2024-03-02T04:05:30;0.60;;;0.60;;
69053;SDS011;56125;52.242;4.756;2024-03-02T04:10:31;0.87;;;0.60;;
69053;SDS011;56125;52.242;4.756;2024-03-02T04:15:32;0.98;;;0.50;;
69053;SDS011;56125;52.242;4.756;2024-03-02T04:20:34;0.63;;;0.60;;
69053;SDS011;56125;52.242;4.756;2024-03-02T04:25:35;0.70;;;0.50;;
69053;SDS011;56125;52.242;4.756;2024-03-02T04:30:36;0.60;;;0.60;;
69053;SDS011;56125;52.242;4.756;2024-03-02T04:35:37;1.05;;;0.70;;
69053;SDS011;56125;52.242;4.756;2024-03-02T04:40:38;0.70;;;0.50;;
69053;SDS011;56125;52.242;4.756;2024-03-02T04:45:39;0.70;;;0.50;;
69053;SDS011;56125;52.242;4.756;2024-03-02T04:50:41;0.87;;;0.60;;
69053;SDS011;56125;52.242;4.756;2024-03-02T04:55:42;0.60;;;0.50;;
69053;SDS011;56125;52.242;4.756;2024-03-02T05:00:43;1.07;;;0.60;;
69053;SDS011;56125;52.242;4.756;2024-03-02T05:05:46;0.60;;;0.52;;
69053;SDS011;56125;52.242;4.756;2024-03-02T05:10:48;0.70;;;0.60;;
69053;SDS011;56125;52.242;4.756;2024-03-02T05:15:49;0.60;;;0.50;;
69053;SDS011;56125;52.242;4.756;2024-03-02T05:20:50;1.43;;;0.60;;
69053;SDS011;56125;52.242;4.756;2024-03-02T05:25:51;0.90;;;0.50;;
69053;SDS011;56125;52.242;4.756;2024-03-02T05:30:52;0.60;;;0.50;;
69053;SDS011;56125;52.242;4.756;2024-03-02T05:35:53;0.98;;;0.52;;
69053;SDS011;56125;52.242;4.756;2024-03-02T05:40:54;1.23;;;0.60;;
69053;SDS011;56125;52.242;4.756;2024-03-02T05:45:55;0.60;;;0.50;;
69053;SDS011;56125;52.242;4.756;2024-03-02T05:50:56;0.80;;;0.60;;
69053;SDS011;56125;52.242;4.756;2024-03-02T05:55:57;0.90;;;0.57;;
69053;SDS011;56125;52.242;4.756;2024-03-02T06:00:58;1.10;;;0.60;;
69053;SDS011;56125;52.242;4.756;2024-03-02T06:05:59;0.70;;;0.60;;
69053;SDS011;56125;52.242;4.756;2024-03-02T06:11:00;0.63;;;0.50;;
69053;SDS011;56125;52.242;4.756;2024-03-02T06:16:02;0.50;;;0.50;;
69053;SDS011;56125;52.242;4.756;2024-03-02T06:21:03;0.50;;;0.50;;
69053;SDS011;56125;52.242;4.756;2024-03-02T06:26:04;1.00;;;0.52;;
69053;SDS011;56125;52.242;4.756;2024-03-02T06:31:05;0.70;;;0.50;;
69053;SDS011;56125;52.242;4.756;2024-03-02T06:36:06;0.80;;;0.45;;
69053;SDS011;56125;52.242;4.756;2024-03-02T06:41:12;0.50;;;0.50;;
69053;SDS011;56125;52.242;4.756;2024-03-02T06:46:13;0.65;;;0.50;;
69053;SDS011;56125;52.242;4.756;2024-03-02T06:51:15;1.07;;;0.50;;
69053;SDS011;56125;52.242;4.756;2024-03-02T06:56:16;0.98;;;0.50;;
69053;SDS011;56125;52.242;4.756;2024-03-02T07:01:17;1.00;;;0.60;;
69053;SDS011;56125;52.242;4.756;2024-03-02T07:06:18;0.63;;;0.50;;
69053;SDS011;56125;52.242;4.756;2024-03-02T07:11:19;0.50;;;0.50;;
69053;SDS011;56125;52.242;4.756;2024-03-02T07:16:20;0.77;;;0.50;;
69053;SDS011;56125;52.242;4.756;2024-03-02T07:21:28;0.60;;;0.50;;
69053;SDS011;56125;52.242;4.756;2024-03-02T07:26:30;1.55;;;0.70;;
69053;SDS011;56125;52.242;4.756;2024-03-02T07:31:31;1.03;;;0.57;;
69053;SDS011;56125;52.242;4.756;2024-03-02T07:36:32;0.40;;;0.40;;
69053;SDS011;56125;52.242;4.756;2024-03-02T07:41:33;0.90;;;0.50;;
69053;SDS011;56125;52.242;4.756;2024-03-02T07:46:34;0.50;;;0.50;;
69053;SDS011;56125;52.242;4.756;2024-03-02T07:51:35;1.00;;;0.60;;
69053;SDS011;56125;52.242;4.756;2024-03-02T07:56:36;0.70;;;0.70;;
69053;SDS011;56125;52.242;4.756;2024-03-02T08:01:38;0.50;;;0.50;;
69053;SDS011;56125;52.242;4.756;2024-03-02T08:06:39;0.90;;;0.60;;
69053;SDS011;56125;52.242;4.756;2024-03-02T08:11:40;1.27;;;0.50;;
69053;SDS011;56125;52.242;4.756;2024-03-02T08:16:41;0.65;;;0.55;;
69053;SDS011;56125;52.242;4.756;2024-03-02T08:21:42;1.53;;;0.50;;
69053;SDS011;56125;52.242;4.756;2024-03-02T08:26:44;0.77;;;0.52;;
69053;SDS011;56125;52.242;4.756;2024-03-02T08:31:45;0.60;;;0.50;;
69053;SDS011;56125;52.242;4.756;2024-03-02T08:36:46;0.90;;;0.60;;
69053;SDS011;56125;52.242;4.756;2024-03-02T08:41:47;0.83;;;0.57;;
69053;SDS011;56125;52.242;4.756;2024-03-02T08:46:48;0.50;;;0.40;;
69053;SDS011;56125;52.242;4.756;2024-03-02T08:51:49;1.40;;;0.50;;
69053;SDS011;56125;52.242;4.756;2024-03-02T08:56:55;0.70;;;0.60;;
69053;SDS011;56125;52.242;4.756;2024-03-02T09:01:56;1.43;;;0.80;;
69053;SDS011;56125;52.242;4.756;2024-03-02T09:06:58;1.50;;;0.60;;
69053;SDS011;56125;52.242;4.756;2024-03-02T09:11:59;0.60;;;0.53;;
69053;SDS011;56125;52.242;4.756;2024-03-02T09:17:00;0.98;;;0.50;;
69053;SDS011;56125;52.242;4.756;2024-03-02T09:22:01;1.20;;;0.40;;
69053;SDS011;56125;52.242;4.756;2024-03-02T09:27:03;1.23;;;0.57;;
69053;SDS011;56125;52.242;4.756;2024-03-02T09:32:05;1.27;;;0.50;;
69053;SDS011;56125;52.242;4.756;2024-03-02T09:37:06;1.02;;;0.55;;
69053;SDS011;56125;52.242;4.756;2024-03-02T09:42:08;1.23;;;0.50;;
69053;SDS011;56125;52.242;4.756;2024-03-02T09:47:09;1.45;;;0.63;;
69053;SDS011;56125;52.242;4.756;2024-03-02T09:52:10;1.27;;;0.60;;
69053;SDS011;56125;52.242;4.756;2024-03-02T09:57:11;1.15;;;0.57;;
69053;SDS011;56125;52.242;4.756;2024-03-02T10:02:12;2.23;;;0.70;;
69053;SDS011;56125;52.242;4.756;2024-03-02T10:07:17;2.13;;;0.80;;
69053;SDS011;56125;52.242;4.756;2024-03-02T10:12:19;3.47;;;0.60;;
69053;SDS011;56125;52.242;4.756;2024-03-02T10:17:20;1.90;;;0.85;;
69053;SDS011;56125;52.242;4.756;2024-03-02T10:22:22;3.00;;;1.13;;
69053;SDS011;56125;52.242;4.756;2024-03-02T10:27:25;0.90;;;0.73;;
69053;SDS011;56125;52.242;4.756;2024-03-02T10:32:28;2.00;;;0.53;;
69053;SDS011;56125;52.242;4.756;2024-03-02T10:37:29;1.23;;;0.60;;
69053;SDS011;56125;52.242;4.756;2024-03-02T10:42:30;2.57;;;0.70;;
69053;SDS011;56125;52.242;4.756;2024-03-02T10:47:32;2.10;;;0.60;;
69053;SDS011;56125;52.242;4.756;2024-03-02T10:52:37;1.50;;;0.63;;
69053;SDS011;56125;52.242;4.756;2024-03-02T10:57:45;1.92;;;0.70;;
69053;SDS011;56125;52.242;4.756;2024-03-02T11:02:52;1.43;;;0.70;;
69053;SDS011;56125;52.242;4.756;2024-03-02T11:08:00;2.08;;;0.70;;
69053;SDS011;56125;52.242;4.756;2024-03-02T11:13:08;1.57;;;1.00;;
69053;SDS011;56125;52.242;4.756;2024-03-02T11:18:10;3.90;;;0.90;;
69053;SDS011;56125;52.242;4.756;2024-03-02T11:23:12;2.73;;;0.80;;
69053;SDS011;56125;52.242;4.756;2024-03-02T11:28:14;2.35;;;0.70;;
69053;SDS011;56125;52.242;4.756;2024-03-02T11:33:15;1.87;;;0.70;;
69053;SDS011;56125;52.242;4.756;2024-03-02T11:38:27;2.03;;;1.05;;
69053;SDS011;56125;52.242;4.756;2024-03-02T11:43:29;2.57;;;0.70;;
69053;SDS011;56125;52.242;4.756;2024-03-02T11:48:30;3.33;;;0.80;;
69053;SDS011;56125;52.242;4.756;2024-03-02T11:53:32;3.57;;;0.70;;
69053;SDS011;56125;52.242;4.756;2024-03-02T11:58:35;1.20;;;0.63;;
69053;SDS011;56125;52.242;4.756;2024-03-02T12:03:38;4.20;;;0.90;;
69053;SDS011;56125;52.242;4.756;2024-03-02T12:08:39;1.48;;;0.73;;
69053;SDS011;56125;52.242;4.756;2024-03-02T12:13:41;2.97;;;0.97;;
69053;SDS011;56125;52.242;4.756;2024-03-02T12:18:42;2.30;;;0.60;;
69053;SDS011;56125;52.242;4.756;2024-03-02T12:23:44;1.47;;;0.80;;
69053;SDS011;56125;52.242;4.756;2024-03-02T12:28:45;2.33;;;0.77;;
69053;SDS011;56125;52.242;4.756;2024-03-02T12:33:48;2.97;;;0.60;;
69053;SDS011;56125;52.242;4.756;2024-03-02T12:38:52;1.42;;;0.55;;
69053;SDS011;56125;52.242;4.756;2024-03-02T12:43:53;1.57;;;0.70;;
69053;SDS011;56125;52.242;4.756;2024-03-02T12:48:55;4.30;;;0.85;;
69053;SDS011;56125;52.242;4.756;2024-03-02T12:53:57;1.67;;;0.80;;
69053;SDS011;56125;52.242;4.756;2024-03-02T12:58:58;1.20;;;0.60;;
69053;SDS011;56125;52.242;4.756;2024-03-02T13:04:00;1.83;;;0.80;;
69053;SDS011;56125;52.242;4.756;2024-03-02T13:09:01;1.88;;;0.70;;
69053;SDS011;56125;52.242;4.756;2024-03-02T13:14:03;1.97;;;0.80;;
69053;SDS011;56125;52.242;4.756;2024-03-02T13:19:09;1.63;;;0.70;;
69053;SDS011;56125;52.242;4.756;2024-03-02T13:24:11;2.00;;;0.63;;
69053;SDS011;56125;52.242;4.756;2024-03-02T13:29:12;1.77;;;0.60;;
69053;SDS011;56125;52.242;4.756;2024-03-02T13:34:13;0.90;;;0.60;;
69053;SDS011;56125;52.242;4.756;2024-03-02T13:39:14;1.50;;;0.55;;
69053;SDS011;56125;52.242;4.756;2024-03-02T13:44:16;1.73;;;0.77;;
69053;SDS011;56125;52.242;4.756;2024-03-02T13:49:17;3.95;;;0.70;;
69053;SDS011;56125;52.242;4.756;2024-03-02T13:54:18;3.90;;;1.00;;
69053;SDS011;56125;52.242;4.756;2024-03-02T13:59:19;2.13;;;0.73;;
69053;SDS011;56125;52.242;4.756;2024-03-02T14:04:22;1.80;;;0.80;;
69053;SDS011;56125;52.242;4.756;2024-03-02T14:09:23;2.35;;;0.70;;
69053;SDS011;56125;52.242;4.756;2024-03-02T14:14:25;2.37;;;0.77;;
69053;SDS011;56125;52.242;4.756;2024-03-02T14:19:26;1.73;;;0.77;;
69053;SDS011;56125;52.242;4.756;2024-03-02T14:24:27;1.20;;;0.70;;
69053;SDS011;56125;52.242;4.756;2024-03-02T14:29:29;2.28;;;0.90;;
69053;SDS011;56125;52.242;4.756;2024-03-02T14:34:30;2.50;;;0.93;;
69053;SDS011;56125;52.242;4.756;2024-03-02T14:39:32;2.28;;;0.70;;
69053;SDS011;56125;52.242;4.756;2024-03-02T14:44:35;5.03;;;0.60;;
69053;SDS011;56125;52.242;4.756;2024-03-02T14:49:36;3.03;;;0.60;;
69053;SDS011;56125;52.242;4.756;2024-03-02T14:54:40;1.43;;;0.80;;
69053;SDS011;56125;52.242;4.756;2024-03-02T14:59:42;1.52;;;0.65;;
69053;SDS011;56125;52.242;4.756;2024-03-02T15:04:43;1.17;;;0.57;;
69053;SDS011;56125;52.242;4.756;2024-03-02T15:09:46;2.58;;;0.60;;
69053;SDS011;56125;52.242;4.756;2024-03-02T15:14:47;4.63;;;0.83;;
69053;SDS011;56125;52.242;4.756;2024-03-02T15:19:48;3.05;;;0.77;;
69053;SDS011;56125;52.242;4.756;2024-03-02T15:24:49;3.60;;;1.10;;
69053;SDS011;56125;52.242;4.756;2024-03-02T15:29:51;2.63;;;0.73;;
69053;SDS011;56125;52.242;4.756;2024-03-02T15:34:52;1.80;;;0.93;;
69053;SDS011;56125;52.242;4.756;2024-03-02T15:39:53;1.77;;;0.90;;
69053;SDS011;56125;52.242;4.756;2024-03-02T15:44:55;3.83;;;0.97;;
69053;SDS011;56125;52.242;4.756;2024-03-02T15:49:56;6.95;;;1.00;;
69053;SDS011;56125;52.242;4.756;2024-03-02T15:54:57;1.67;;;0.90;;
69053;SDS011;56125;52.242;4.756;2024-03-02T15:59:58;3.05;;;1.10;;
69053;SDS011;56125;52.242;4.756;2024-03-02T16:04:59;3.77;;;1.00;;
69053;SDS011;56125;52.242;4.756;2024-03-02T16:10:00;3.92;;;1.10;;
69053;SDS011;56125;52.242;4.756;2024-03-02T16:15:05;2.57;;;0.97;;
69053;SDS011;56125;52.242;4.756;2024-03-02T16:20:06;2.10;;;1.00;;
69053;SDS011;56125;52.242;4.756;2024-03-02T16:25:08;4.27;;;1.17;;
69053;SDS011;56125;52.242;4.756;2024-03-02T16:30:09;1.48;;;0.65;;
69053;SDS011;56125;52.242;4.756;2024-03-02T16:35:10;2.03;;;0.70;;
69053;SDS011;56125;52.242;4.756;2024-03-02T16:40:12;1.42;;;0.70;;
69053;SDS011;56125;52.242;4.756;2024-03-02T16:45:13;1.50;;;0.90;;
69053;SDS011;56125;52.242;4.756;2024-03-02T16:50:15;1.42;;;0.90;;
69053;SDS011;56125;52.242;4.756;2024-03-02T16:55:16;1.97;;;0.90;;
69053;SDS011;56125;52.242;4.756;2024-03-02T17:00:19;1.80;;;1.10;;
69053;SDS011;56125;52.242;4.756;2024-03-02T17:05:20;2.17;;;0.93;;
69053;SDS011;56125;52.242;4.756;2024-03-02T17:10:22;1.38;;;0.75;;
69053;SDS011;56125;52.242;4.756;2024-03-02T17:15:23;1.20;;;1.00;;
69053;SDS011;56125;52.242;4.756;2024-03-02T17:20:24;1.27;;;0.90;;
69053;SDS011;56125;52.242;4.756;2024-03-02T17:25:25;1.53;;;0.90;;
69053;SDS011;56125;52.242;4.756;2024-03-02T17:30:26;1.17;;;0.90;;
69053;SDS011;56125;52.242;4.756;2024-03-02T17:35:27;1.93;;;0.80;;
69053;SDS011;56125;52.242;4.756;2024-03-02T17:40:28;1.20;;;0.90;;
69053;SDS011;56125;52.242;4.756;2024-03-02T17:45:29;5.53;;;0.90;;
69053;SDS011;56125;52.242;4.756;2024-03-02T17:50:30;1.30;;;0.88;;
69053;SDS011;56125;52.242;4.756;2024-03-02T17:55:31;1.90;;;1.10;;
69053;SDS011;56125;52.242;4.756;2024-03-02T18:00:32;2.88;;;1.00;;
69053;SDS011;56125;52.242;4.756;2024-03-02T18:05:33;1.50;;;0.80;;
69053;SDS011;56125;52.242;4.756;2024-03-02T18:10:37;2.63;;;1.10;;
69053;SDS011;56125;52.242;4.756;2024-03-02T18:15:38;1.53;;;0.90;;
69053;SDS011;56125;52.242;4.756;2024-03-02T18:20:39;1.17;;;0.90;;
69053;SDS011;56125;52.242;4.756;2024-03-02T18:25:40;1.50;;;1.03;;
69053;SDS011;56125;52.242;4.756;2024-03-02T18:30:46;1.88;;;1.15;;
69053;SDS011;56125;52.242;4.756;2024-03-02T18:35:47;2.93;;;1.20;;
69053;SDS011;56125;52.242;4.756;2024-03-02T18:40:48;2.35;;;1.10;;
69053;SDS011;56125;52.242;4.756;2024-03-02T18:45:49;2.00;;;1.17;;
69053;SDS011;56125;52.242;4.756;2024-03-02T18:50:53;2.88;;;0.93;;
69053;SDS011;56125;52.242;4.756;2024-03-02T18:55:54;2.53;;;1.20;;
69053;SDS011;56125;52.242;4.756;2024-03-02T19:00:56;2.85;;;1.13;;
69053;SDS011;56125;52.242;4.756;2024-03-02T19:05:58;14.17;;;2.33;;
69053;SDS011;56125;52.242;4.756;2024-03-02T19:11:01;23.35;;;3.42;;
69053;SDS011;56125;52.242;4.756;2024-03-02T19:16:02;24.53;;;3.70;;
69053;SDS011;56125;52.242;4.756;2024-03-02T19:21:04;19.48;;;3.25;;
69053;SDS011;56125;52.242;4.756;2024-03-02T19:26:05;28.80;;;4.37;;
69053;SDS011;56125;52.242;4.756;2024-03-02T19:31:06;19.52;;;3.08;;
69053;SDS011;56125;52.242;4.756;2024-03-02T19:36:07;18.47;;;3.30;;
69053;SDS011;56125;52.242;4.756;2024-03-02T19:41:08;14.90;;;2.45;;
69053;SDS011;56125;52.242;4.756;2024-03-02T19:46:12;12.90;;;2.60;;
69053;SDS011;56125;52.242;4.756;2024-03-02T19:51:13;14.95;;;2.50;;
69053;SDS011;56125;52.242;4.756;2024-03-02T19:56:17;18.53;;;3.20;;
69053;SDS011;56125;52.242;4.756;2024-03-02T20:01:19;10.15;;;2.45;;
69053;SDS011;56125;52.242;4.756;2024-03-02T20:06:20;11.43;;;2.43;;
69053;SDS011;56125;52.242;4.756;2024-03-02T20:11:21;13.93;;;2.60;;
69053;SDS011;56125;52.242;4.756;2024-03-02T20:16:23;13.67;;;2.50;;
69053;SDS011;56125;52.242;4.756;2024-03-02T20:21:24;8.15;;;2.20;;
69053;SDS011;56125;52.242;4.756;2024-03-02T20:26:25;8.27;;;2.40;;
69053;SDS011;56125;52.242;4.756;2024-03-02T20:31:26;9.32;;;2.13;;
69053;SDS011;56125;52.242;4.756;2024-03-02T20:36:27;6.90;;;2.00;;
69053;SDS011;56125;52.242;4.756;2024-03-02T20:41:28;6.47;;;1.60;;
69053;SDS011;56125;52.242;4.756;2024-03-02T20:46:29;8.77;;;2.20;;
69053;SDS011;56125;52.242;4.756;2024-03-02T20:51:30;6.55;;;2.20;;
69053;SDS011;56125;52.242;4.756;2024-03-02T20:56:32;7.40;;;1.80;;
69053;SDS011;56125;52.242;4.756;2024-03-02T21:01:36;6.20;;;1.80;;
69053;SDS011;56125;52.242;4.756;2024-03-02T21:06:37;5.00;;;1.60;;
69053;SDS011;56125;52.242;4.756;2024-03-02T21:11:38;7.25;;;1.88;;
69053;SDS011;56125;52.242;4.756;2024-03-02T21:16:41;2.27;;;1.37;;
69053;SDS011;56125;52.242;4.756;2024-03-02T21:21:42;3.33;;;1.50;;
69053;SDS011;56125;52.242;4.756;2024-03-02T21:26:43;4.37;;;1.70;;
69053;SDS011;56125;52.242;4.756;2024-03-02T21:31:44;5.40;;;1.50;;
69053;SDS011;56125;52.242;4.756;2024-03-02T21:36:45;2.67;;;1.70;;
69053;SDS011;56125;52.242;4.756;2024-03-02T21:41:46;3.05;;;1.27;;
69053;SDS011;56125;52.242;4.756;2024-03-02T21:46:47;2.00;;;1.40;;
69053;SDS011;56125;52.242;4.756;2024-03-02T21:51:48;4.32;;;1.52;;
69053;SDS011;56125;52.242;4.756;2024-03-02T21:56:49;3.40;;;1.80;;
69053;SDS011;56125;52.242;4.756;2024-03-02T22:01:50;3.00;;;1.40;;
69053;SDS011;56125;52.242;4.756;2024-03-02T22:06:52;2.50;;;1.90;;
69053;SDS011;56125;52.242;4.756;2024-03-02T22:11:54;3.42;;;1.40;;
69053;SDS011;56125;52.242;4.756;2024-03-02T22:16:55;2.80;;;1.90;;
69053;SDS011;56125;52.242;4.756;2024-03-02T22:21:56;3.00;;;1.52;;
69053;SDS011;56125;52.242;4.756;2024-03-02T22:26:57;2.20;;;1.30;;
69053;SDS011;56125;52.242;4.756;2024-03-02T22:31:58;3.08;;;1.50;;
69053;SDS011;56125;52.242;4.756;2024-03-02T22:37:02;4.30;;;1.53;;
69053;SDS011;56125;52.242;4.756;2024-03-02T22:42:03;3.92;;;1.45;;
69053;SDS011;56125;52.242;4.756;2024-03-02T22:47:04;2.83;;;1.50;;
69053;SDS011;56125;52.242;4.756;2024-03-02T22:52:05;1.77;;;1.20;;
69053;SDS011;56125;52.242;4.756;2024-03-02T22:57:06;2.30;;;1.40;;
69053;SDS011;56125;52.242;4.756;2024-03-02T23:02:08;3.08;;;1.30;;
69053;SDS011;56125;52.242;4.756;2024-03-02T23:07:09;2.90;;;1.37;;
69053;SDS011;56125;52.242;4.756;2024-03-02T23:12:11;1.65;;;1.10;;
69053;SDS011;56125;52.242;4.756;2024-03-02T23:17:13;1.77;;;1.10;;
69053;SDS011;56125;52.242;4.756;2024-03-02T23:22:14;2.30;;;1.30;;
69053;SDS011;56125;52.242;4.756;2024-03-02T23:27:15;2.93;;;1.10;;
69053;SDS011;56125;52.242;4.756;2024-03-02T23:32:16;3.28;;;1.40;;
69053;SDS011;56125;52.242;4.756;2024-03-02T23:37:17;1.70;;;1.20;;
69053;SDS011;56125;52.242;4.756;2024-03-02T23:42:18;2.20;;;1.20;;
69053;SDS011;56125;52.242;4.756;2024-03-02T23:47:19;2.00;;;1.43;;
69053;SDS011;56125;52.242;4.756;2024-03-02T23:52:20;1.98;;;1.20;;
69053;SDS011;56125;52.242;4.756;2024-03-02T23:57:21;4.00;;;1.30;;
